sensor_id;sensor_type;location;lat;lon;timestamp;pressure;altitude;pressure_sealevel;temperature;humidity
11041;BME280;5573;49.592;8.662;2022-12-07T00:02:16;100023.34;;;3.59;100.00
11041;BME280;5573;49.592;8.662;2022-12-07T00:05:05;100015.44;;;3.66;100.00
11041;BME280;5573;49.592;8.662;2022-12-07T00:07:53;100015.91;;;3.68;100.00
11041;BME280;5573;49.592;8.662;2022-12-07T00:10:41;100011.47;;;3.63;100.00
11041;BME280;5573;49.592;8.662;2022-12-07T00:13:30;100016.13;;;3.63;100.00
11041;BME280;5573;49.592;8.662;2022-12-07T00:16:21;100009.22;;;3.65;100.00
11041;BME280;5573;49.592;8.662;2022-12-07T00:19:10;100006.03;;;3.63;100.00
11041;BME280;5573;49.592;8.662;2022-12-07T00:21:58;100007.91;;;3.72;100.00
11041;BME280;5573;49.592;8.662;2022-12-07T00:24:46;100003.97;;;3.81;100.00
11041;BME280;5573;49.592;8.662;2022-12-07T00:27:34;99996.22;;;3.71;100.00
11041;BME280;5573;49.592;8.662;2022-12-07T00:30:23;99994.16;;;3.68;100.00
11041;BME280;5573;49.592;8.662;2022-12-07T00:33:12;99998.03;;;3.67;100.00
11041;BME280;5573;49.592;8.662;2022-12-07T00:36:00;99991.75;;;3.66;100.00
11041;BME280;5573;49.592;8.662;2022-12-07T00:38:49;99985.81;;;3.73;100.00
11041;BME280;5573;49.592;8.662;2022-12-07T00:41:37;99983.66;;;3.58;100.00
11041;BME280;5573;49.592;8.662;2022-12-07T00:44:25;99987.59;;;3.69;100.00
11041;BME280;5573;49.592;8.662;2022-12-07T00:47:14;99986.84;;;3.60;100.00
11041;BME280;5573;49.592;8.662;2022-12-07T00:50:02;99872.16;;;2.86;100.00
11041;BME280;5573;49.592;8.662;2022-12-07T00:52:50;99977.19;;;3.71;100.00
11041;BME280;5573;49.592;8.662;2022-12-07T00:55:38;99976.72;;;3.69;100.00
11041;BME280;5573;49.592;8.662;2022-12-07T00:58:26;99987.47;;;3.65;100.00
11041;BME280;5573;49.592;8.662;2022-12-07T01:01:14;99982.66;;;3.62;100.00
11041;BME280;5573;49.592;8.662;2022-12-07T01:04:04;99988.25;;;3.66;100.00
11041;BME280;5573;49.592;8.662;2022-12-07T01:06:52;99988.56;;;3.64;100.00
11041;BME280;5573;49.592;8.662;2022-12-07T01:09:40;99984.28;;;3.63;100.00
11041;BME280;5573;49.592;8.662;2022-12-07T01:12:28;99972.13;;;3.61;100.00
11041;BME280;5573;49.592;8.662;2022-12-07T01:15:16;99972.13;;;3.61;100.00
11041;BME280;5573;49.592;8.662;2022-12-07T01:18:04;99960.19;;;3.53;100.00
11041;BME280;5573;49.592;8.662;2022-12-07T01:21:02;99964.50;;;3.54;100.00
11041;BME280;5573;49.592;8.662;2022-12-07T01:23:50;99957.59;;;3.57;100.00
11041;BME280;5573;49.592;8.662;2022-12-07T01:26:38;99967.63;;;3.65;100.00
11041;BME280;5573;49.592;8.662;2022-12-07T01:29:27;99962.44;;;3.72;100.00
11041;BME280;5573;49.592;8.662;2022-12-07T01:32:15;99968.59;;;3.60;100.00
11041;BME280;5573;49.592;8.662;2022-12-07T01:35:03;99975.72;;;3.53;100.00
11041;BME280;5573;49.592;8.662;2022-12-07T01:37:52;99974.50;;;3.62;100.00
11041;BME280;5573;49.592;8.662;2022-12-07T01:40:40;99974.03;;;3.60;100.00
11041;BME280;5573;49.592;8.662;2022-12-07T01:43:30;99979.75;;;3.46;100.00
11041;BME280;5573;49.592;8.662;2022-12-07T01:46:18;99983.09;;;3.43;100.00
11041;BME280;5573;49.592;8.662;2022-12-07T01:49:08;99977.06;;;3.38;100.00
11041;BME280;5573;49.592;8.662;2022-12-07T01:52:04;99979.75;;;3.46;100.00
11041;BME280;5573;49.592;8.662;2022-12-07T01:55:06;99976.72;;;3.39;100.00
11041;BME280;5573;49.592;8.662;2022-12-07T01:57:55;99970.13;;;3.49;100.00
11041;BME280;5573;49.592;8.662;2022-12-07T02:00:44;99967.59;;;3.44;100.00
11041;BME280;5573;49.592;8.662;2022-12-07T02:03:35;99960.81;;;3.29;100.00
11041;BME280;5573;49.592;8.662;2022-12-07T02:06:25;99964.59;;;3.37;100.00
11041;BME280;5573;49.592;8.662;2022-12-07T02:09:14;99954.00;;;3.44;100.00
11041;BME280;5573;49.592;8.662;2022-12-07T02:12:04;99957.25;;;3.58;100.00
11041;BME280;5573;49.592;8.662;2022-12-07T02:14:52;99953.16;;;3.52;100.00
11041;BME280;5573;49.592;8.662;2022-12-07T02:17:44;99946.25;;;3.55;100.00
11041;BME280;5573;49.592;8.662;2022-12-07T02:20:39;99953.63;;;3.54;100.00
11041;BME280;5573;49.592;8.662;2022-12-07T02:30:03;99953.88;;;3.40;100.00
11041;BME280;5573;49.592;8.662;2022-12-07T02:32:56;99958.59;;;3.52;100.00
11041;BME280;5573;49.592;8.662;2022-12-07T02:35:52;99957.91;;;3.55;100.00
11041;BME280;5573;49.592;8.662;2022-12-07T02:38:45;99966.47;;;3.66;100.00
11041;BME280;5573;49.592;8.662;2022-12-07T02:41:39;99959.47;;;3.65;100.00
11041;BME280;5573;49.592;8.662;2022-12-07T02:44:28;99963.28;;;3.64;100.00
11041;BME280;5573;49.592;8.662;2022-12-07T02:47:21;99955.81;;;3.61;100.00
11041;BME280;5573;49.592;8.662;2022-12-07T02:50:11;99959.00;;;3.63;100.00
11041;BME280;5573;49.592;8.662;2022-12-07T02:52:59;99953.97;;;3.74;100.00
11041;BME280;5573;49.592;8.662;2022-12-07T02:55:47;99947.03;;;3.76;100.00
11041;BME280;5573;49.592;8.662;2022-12-07T02:58:44;99936.84;;;3.73;100.00
11041;BME280;5573;49.592;8.662;2022-12-07T03:01:40;99943.13;;;3.65;100.00
11041;BME280;5573;49.592;8.662;2022-12-07T03:04:43;99940.03;;;3.54;100.00
11041;BME280;5573;49.592;8.662;2022-12-07T03:07:37;99929.31;;;3.70;100.00
11041;BME280;5573;49.592;8.662;2022-12-07T03:10:35;99934.69;;;3.79;100.00
11041;BME280;5573;49.592;8.662;2022-12-07T03:13:28;99934.75;;;3.91;100.00
11041;BME280;5573;49.592;8.662;2022-12-07T03:16:21;99933.38;;;3.85;100.00
11041;BME280;5573;49.592;8.662;2022-12-07T03:19:15;99925.81;;;3.91;100.00
11041;BME280;5573;49.592;8.662;2022-12-07T03:22:07;99927.28;;;3.88;100.00
11041;BME280;5573;49.592;8.662;2022-12-07T03:24:59;99924.81;;;3.74;100.00
11041;BME280;5573;49.592;8.662;2022-12-07T03:27:52;99923.25;;;3.73;100.00
11041;BME280;5573;49.592;8.662;2022-12-07T03:30:46;99921.38;;;3.86;100.00
11041;BME280;5573;49.592;8.662;2022-12-07T03:33:40;99923.09;;;3.91;100.00
11041;BME280;5573;49.592;8.662;2022-12-07T03:36:32;99923.66;;;3.96;100.00
11041;BME280;5573;49.592;8.662;2022-12-07T03:39:29;99918.34;;;4.00;100.00
11041;BME280;5573;49.592;8.662;2022-12-07T03:42:19;99874.44;;;3.68;100.00
11041;BME280;5573;49.592;8.662;2022-12-07T03:45:07;99909.56;;;3.94;100.00
11041;BME280;5573;49.592;8.662;2022-12-07T03:48:02;99906.69;;;3.78;100.00
11041;BME280;5573;49.592;8.662;2022-12-07T03:50:55;99904.03;;;3.91;100.00
11041;BME280;5573;49.592;8.662;2022-12-07T03:53:53;99907.00;;;3.98;100.00
11041;BME280;5573;49.592;8.662;2022-12-07T03:56:44;99905.47;;;4.09;100.00
11041;BME280;5573;49.592;8.662;2022-12-07T03:59:33;99904.56;;;4.17;100.00
11041;BME280;5573;49.592;8.662;2022-12-07T04:02:22;99899.78;;;4.14;100.00
11041;BME280;5573;49.592;8.662;2022-12-07T04:05:11;99896.84;;;4.07;100.00
11041;BME280;5573;49.592;8.662;2022-12-07T04:07:59;99898.50;;;3.99;100.00
11041;BME280;5573;49.592;8.662;2022-12-07T04:10:47;99896.16;;;4.10;100.00
11041;BME280;5573;49.592;8.662;2022-12-07T04:13:36;99906.13;;;4.06;100.00
11041;BME280;5573;49.592;8.662;2022-12-07T04:16:38;99883.38;;;3.90;100.00
11041;BME280;5573;49.592;8.662;2022-12-07T04:19:33;99898.44;;;4.20;100.00
11041;BME280;5573;49.592;8.662;2022-12-07T04:22:21;99883.88;;;4.04;100.00
11041;BME280;5573;49.592;8.662;2022-12-07T04:25:09;99911.38;;;4.11;100.00
11041;BME280;5573;49.592;8.662;2022-12-07T04:27:57;99905.78;;;4.07;100.00
11041;BME280;5573;49.592;8.662;2022-12-07T04:30:47;99912.31;;;3.94;100.00
11041;BME280;5573;49.592;8.662;2022-12-07T04:33:35;99915.28;;;4.01;100.00
11041;BME280;5573;49.592;8.662;2022-12-07T04:36:23;99910.88;;;3.97;100.00
11041;BME280;5573;49.592;8.662;2022-12-07T04:39:17;99911.44;;;3.69;100.00
11041;BME280;5573;49.592;8.662;2022-12-07T04:42:05;99908.53;;;3.86;100.00
11041;BME280;5573;49.592;8.662;2022-12-07T04:44:53;99905.44;;;3.76;100.00
11041;BME280;5573;49.592;8.662;2022-12-07T04:47:43;99906.91;;;3.73;100.00
11041;BME280;5573;49.592;8.662;2022-12-07T04:50:31;99903.91;;;3.66;100.00
11041;BME280;5573;49.592;8.662;2022-12-07T04:53:19;99903.53;;;3.55;100.00
11041;BME280;5573;49.592;8.662;2022-12-07T04:56:07;99913.69;;;3.67;100.00
11041;BME280;5573;49.592;8.662;2022-12-07T04:58:55;99912.81;;;3.54;100.00
11041;BME280;5573;49.592;8.662;2022-12-07T05:01:43;99913.41;;;3.60;100.00
11041;BME280;5573;49.592;8.662;2022-12-07T05:04:33;99911.22;;;3.53;100.00
11041;BME280;5573;49.592;8.662;2022-12-07T05:07:20;99916.25;;;3.63;100.00
11041;BME280;5573;49.592;8.662;2022-12-07T05:10:09;99918.13;;;3.51;100.00
11041;BME280;5573;49.592;8.662;2022-12-07T05:12:57;99916.97;;;3.52;100.00
11041;BME280;5573;49.592;8.662;2022-12-07T05:15:46;99917.66;;;3.49;100.00
11041;BME280;5573;49.592;8.662;2022-12-07T05:18:34;99917.91;;;3.35;100.00
11041;BME280;5573;49.592;8.662;2022-12-07T05:21:23;99920.28;;;3.36;100.00
11041;BME280;5573;49.592;8.662;2022-12-07T05:24:13;99927.47;;;3.41;100.00
11041;BME280;5573;49.592;8.662;2022-12-07T05:27:01;99909.22;;;3.41;100.00
11041;BME280;5573;49.592;8.662;2022-12-07T05:29:49;99875.28;;;2.97;100.00
11041;BME280;5573;49.592;8.662;2022-12-07T05:32:37;99798.25;;;2.42;100.00
11041;BME280;5573;49.592;8.662;2022-12-07T05:35:25;99906.53;;;3.12;100.00
11041;BME280;5573;49.592;8.662;2022-12-07T05:38:14;99911.31;;;3.15;100.00
11041;BME280;5573;49.592;8.662;2022-12-07T05:41:04;99914.63;;;3.20;100.00
11041;BME280;5573;49.592;8.662;2022-12-07T05:43:52;99910.78;;;3.21;100.00
11041;BME280;5573;49.592;8.662;2022-12-07T05:46:40;99911.59;;;3.22;100.00
11041;BME280;5573;49.592;8.662;2022-12-07T05:49:28;99917.22;;;3.17;100.00
11041;BME280;5573;49.592;8.662;2022-12-07T05:52:17;99910.78;;;3.21;100.00
11041;BME280;5573;49.592;8.662;2022-12-07T05:55:07;99903.75;;;3.20;100.00
11041;BME280;5573;49.592;8.662;2022-12-07T05:57:55;99903.25;;;3.27;100.00
11041;BME280;5573;49.592;8.662;2022-12-07T06:01:00;99905.97;;;3.27;100.00
11041;BME280;5573;49.592;8.662;2022-12-07T06:03:48;99903.03;;;3.32;100.00
11041;BME280;5573;49.592;8.662;2022-12-07T06:06:36;99902.38;;;3.14;100.00
11041;BME280;5573;49.592;8.662;2022-12-07T06:09:26;99911.59;;;3.22;100.00
11041;BME280;5573;49.592;8.662;2022-12-07T06:12:15;99905.50;;;3.25;100.00
11041;BME280;5573;49.592;8.662;2022-12-07T06:15:20;99904.19;;;3.31;100.00
11041;BME280;5573;49.592;8.662;2022-12-07T06:18:09;99902.13;;;3.28;100.00
11041;BME280;5573;49.592;8.662;2022-12-07T06:20:57;99903.19;;;3.36;100.00
11041;BME280;5573;49.592;8.662;2022-12-07T06:23:45;99912.66;;;3.30;100.00
11041;BME280;5573;49.592;8.662;2022-12-07T06:26:34;99903.38;;;3.31;100.00
11041;BME280;5573;49.592;8.662;2022-12-07T06:29:24;99909.06;;;3.17;100.00
11041;BME280;5573;49.592;8.662;2022-12-07T06:32:12;99906.16;;;3.22;100.00
11041;BME280;5573;49.592;8.662;2022-12-07T06:35:00;99914.25;;;3.31;100.00
11041;BME280;5573;49.592;8.662;2022-12-07T06:37:48;99907.84;;;3.35;100.00
11041;BME280;5573;49.592;8.662;2022-12-07T06:40:36;99913.41;;;3.39;100.00
11041;BME280;5573;49.592;8.662;2022-12-07T06:43:24;99907.16;;;3.38;100.00
11041;BME280;5573;49.592;8.662;2022-12-07T06:46:13;99910.41;;;3.32;100.00
11041;BME280;5573;49.592;8.662;2022-12-07T06:49:02;99914.25;;;3.31;100.00
11041;BME280;5573;49.592;8.662;2022-12-07T06:51:50;99915.06;;;3.31;100.00
11041;BME280;5573;49.592;8.662;2022-12-07T06:54:38;99912.06;;;3.24;100.00
11041;BME280;5573;49.592;8.662;2022-12-07T06:57:26;99913.38;;;3.18;100.00
11041;BME280;5573;49.592;8.662;2022-12-07T07:00:15;99918.34;;;3.16;100.00
11041;BME280;5573;49.592;8.662;2022-12-07T07:03:09;99914.97;;;3.19;100.00
11041;BME280;5573;49.592;8.662;2022-12-07T07:05:37;99919.63;;;3.18;100.00
11041;BME280;5573;49.592;8.662;2022-12-07T07:08:04;99921.53;;;3.18;100.00
11041;BME280;5573;49.592;8.662;2022-12-07T07:10:49;99924.25;;;3.18;100.00
11041;BME280;5573;49.592;8.662;2022-12-07T07:13:17;99915.56;;;3.24;100.00
11041;BME280;5573;49.592;8.662;2022-12-07T07:15:45;99929.50;;;3.23;100.00
11041;BME280;5573;49.592;8.662;2022-12-07T07:18:14;99922.28;;;3.27;100.00
11041;BME280;5573;49.592;8.662;2022-12-07T07:20:41;99927.72;;;3.27;100.00
11041;BME280;5573;49.592;8.662;2022-12-07T07:23:09;99924.81;;;3.32;100.00
11041;BME280;5573;49.592;8.662;2022-12-07T07:25:37;99929.06;;;3.42;100.00
11041;BME280;5573;49.592;8.662;2022-12-07T07:28:05;99931.09;;;3.24;100.00
11041;BME280;5573;49.592;8.662;2022-12-07T07:30:33;99930.72;;;3.34;100.00
11041;BME280;5573;49.592;8.662;2022-12-07T07:33:02;99929.31;;;3.28;100.00
11041;BME280;5573;49.592;8.662;2022-12-07T07:35:33;99920.81;;;3.30;100.00
11041;BME280;5573;49.592;8.662;2022-12-07T07:38:01;99932.50;;;3.30;100.00
11041;BME280;5573;49.592;8.662;2022-12-07T07:40:29;99930.25;;;3.32;100.00
11041;BME280;5573;49.592;8.662;2022-12-07T07:42:57;99913.59;;;3.34;100.00
11041;BME280;5573;49.592;8.662;2022-12-07T07:45:26;99930.97;;;3.41;100.00
11041;BME280;5573;49.592;8.662;2022-12-07T07:47:54;99934.75;;;3.49;100.00
11041;BME280;5573;49.592;8.662;2022-12-07T07:50:22;99931.56;;;3.47;100.00
11041;BME280;5573;49.592;8.662;2022-12-07T07:52:51;99934.97;;;3.44;100.00
11041;BME280;5573;49.592;8.662;2022-12-07T07:55:19;99944.78;;;3.57;100.00
11041;BME280;5573;49.592;8.662;2022-12-07T07:57:47;99936.31;;;3.59;100.00
11041;BME280;5573;49.592;8.662;2022-12-07T08:00:21;99939.56;;;3.73;100.00
11041;BME280;5573;49.592;8.662;2022-12-07T08:02:48;99945.88;;;3.65;100.00
11041;BME280;5573;49.592;8.662;2022-12-07T08:05:16;99942.31;;;3.64;100.00
11041;BME280;5573;49.592;8.662;2022-12-07T08:07:44;99946.19;;;3.63;100.00
11041;BME280;5573;49.592;8.662;2022-12-07T08:10:13;99946.84;;;3.60;100.00
11041;BME280;5573;49.592;8.662;2022-12-07T08:12:42;99941.84;;;3.62;100.00
11041;BME280;5573;49.592;8.662;2022-12-07T08:15:25;99953.81;;;3.70;100.00
11041;BME280;5573;49.592;8.662;2022-12-07T08:17:53;99943.72;;;3.71;100.00
11041;BME280;5573;49.592;8.662;2022-12-07T08:20:21;99946.97;;;3.64;100.00
11041;BME280;5573;49.592;8.662;2022-12-07T08:22:49;99952.47;;;3.55;100.00
11041;BME280;5573;49.592;8.662;2022-12-07T08:25:18;99946.91;;;3.52;100.00
11041;BME280;5573;49.592;8.662;2022-12-07T08:27:46;99927.13;;;3.42;100.00
11041;BME280;5573;49.592;8.662;2022-12-07T08:30:13;99944.72;;;3.66;100.00
11041;BME280;5573;49.592;8.662;2022-12-07T08:32:41;99951.16;;;3.82;100.00
11041;BME280;5573;49.592;8.662;2022-12-07T08:35:09;99936.69;;;3.70;100.00
11041;BME280;5573;49.592;8.662;2022-12-07T08:37:37;99952.81;;;3.75;100.00
11041;BME280;5573;49.592;8.662;2022-12-07T08:40:06;99957.53;;;3.65;100.00
11041;BME280;5573;49.592;8.662;2022-12-07T08:42:36;99950.88;;;3.75;100.00
11041;BME280;5573;49.592;8.662;2022-12-07T08:45:09;99949.97;;;3.92;100.00
11041;BME280;5573;49.592;8.662;2022-12-07T08:47:39;99953.34;;;3.89;100.00
11041;BME280;5573;49.592;8.662;2022-12-07T08:50:09;99946.91;;;3.94;100.00
11041;BME280;5573;49.592;8.662;2022-12-07T08:52:39;99948.28;;;4.00;100.00
11041;BME280;5573;49.592;8.662;2022-12-07T08:55:10;99948.41;;;4.03;100.00
11041;BME280;5573;49.592;8.662;2022-12-07T08:57:39;99953.47;;;4.14;100.00
11041;BME280;5573;49.592;8.662;2022-12-07T09:00:10;99952.25;;;4.02;100.00
11041;BME280;5573;49.592;8.662;2022-12-07T09:02:38;99957.19;;;4.09;100.00
11041;BME280;5573;49.592;8.662;2022-12-07T09:05:07;99948.34;;;4.12;100.00
11041;BME280;5573;49.592;8.662;2022-12-07T09:07:43;99959.09;;;4.08;100.00
11041;BME280;5573;49.592;8.662;2022-12-07T09:10:11;99955.38;;;4.13;100.00
11041;BME280;5573;49.592;8.662;2022-12-07T09:12:41;99952.94;;;3.99;100.00
11041;BME280;5573;49.592;8.662;2022-12-07T09:15:08;99953.25;;;3.98;100.00
11041;BME280;5573;49.592;8.662;2022-12-07T09:17:36;99955.56;;;4.08;100.00
11041;BME280;5573;49.592;8.662;2022-12-07T09:20:05;99950.00;;;4.04;100.00
11041;BME280;5573;49.592;8.662;2022-12-07T09:22:33;99960.31;;;3.99;100.00
11041;BME280;5573;49.592;8.662;2022-12-07T09:25:02;99957.59;;;3.99;100.00
11041;BME280;5573;49.592;8.662;2022-12-07T09:27:30;99963.97;;;4.03;100.00
11041;BME280;5573;49.592;8.662;2022-12-07T09:29:59;99964.84;;;3.95;100.00
11041;BME280;5573;49.592;8.662;2022-12-07T09:32:27;99959.72;;;3.93;100.00
11041;BME280;5573;49.592;8.662;2022-12-07T09:34:55;99963.03;;;3.99;100.00
11041;BME280;5573;49.592;8.662;2022-12-07T09:37:23;99957.66;;;4.11;100.00
11041;BME280;5573;49.592;8.662;2022-12-07T09:39:51;99963.66;;;4.17;100.00
11041;BME280;5573;49.592;8.662;2022-12-07T09:42:27;99966.59;;;4.12;100.00
11041;BME280;5573;49.592;8.662;2022-12-07T09:44:56;99957.22;;;4.21;100.00
11041;BME280;5573;49.592;8.662;2022-12-07T09:47:27;99959.00;;;4.17;100.00
11041;BME280;5573;49.592;8.662;2022-12-07T09:50:00;99962.31;;;4.23;100.00
11041;BME280;5573;49.592;8.662;2022-12-07T09:52:31;99953.72;;;4.00;100.00
11041;BME280;5573;49.592;8.662;2022-12-07T09:55:10;99952.44;;;4.18;100.00
11041;BME280;5573;49.592;8.662;2022-12-07T09:57:39;99956.97;;;4.14;100.00
11041;BME280;5573;49.592;8.662;2022-12-07T10:00:12;99956.91;;;4.02;100.00
11041;BME280;5573;49.592;8.662;2022-12-07T10:02:43;99944.59;;;4.17;100.00
11041;BME280;5573;49.592;8.662;2022-12-07T10:05:15;99943.91;;;4.07;100.00
11041;BME280;5573;49.592;8.662;2022-12-07T10:07:50;99948.34;;;4.12;100.00
11041;BME280;5573;49.592;8.662;2022-12-07T10:10:23;99943.25;;;4.23;100.00
11041;BME280;5573;49.592;8.662;2022-12-07T10:12:54;99905.78;;;4.07;100.00
11041;BME280;5573;49.592;8.662;2022-12-07T10:15:22;99938.25;;;4.13;100.00
11041;BME280;5573;49.592;8.662;2022-12-07T10:17:52;99944.16;;;4.15;100.00
11041;BME280;5573;49.592;8.662;2022-12-07T10:20:22;99934.78;;;4.24;100.00
11041;BME280;5573;49.592;8.662;2022-12-07T10:23:01;99930.13;;;4.25;100.00
11041;BME280;5573;49.592;8.662;2022-12-07T10:25:32;99924.13;;;4.32;100.00
11041;BME280;5573;49.592;8.662;2022-12-07T10:28:13;99923.09;;;4.36;100.00
11041;BME280;5573;49.592;8.662;2022-12-07T10:30:53;99921.34;;;4.19;100.00
11041;BME280;5573;49.592;8.662;2022-12-07T10:33:30;99921.81;;;4.21;100.00
11041;BME280;5573;49.592;8.662;2022-12-07T10:35:59;99931.31;;;4.15;100.00
11041;BME280;5573;49.592;8.662;2022-12-07T10:38:28;99925.22;;;4.18;100.00
11041;BME280;5573;49.592;8.662;2022-12-07T10:41:04;99917.19;;;4.22;100.00
11041;BME280;5573;49.592;8.662;2022-12-07T10:43:32;99921.16;;;4.24;100.00
11041;BME280;5573;49.592;8.662;2022-12-07T10:49:39;99913.22;;;4.32;100.00
11041;BME280;5573;49.592;8.662;2022-12-07T10:52:18;99915.75;;;4.37;100.00
11041;BME280;5573;49.592;8.662;2022-12-07T10:55:03;99909.81;;;4.22;100.00
11041;BME280;5573;49.592;8.662;2022-12-07T10:57:45;99902.47;;;4.35;100.00
11041;BME280;5573;49.592;8.662;2022-12-07T11:00:17;99900.66;;;4.39;100.00
11041;BME280;5573;49.592;8.662;2022-12-07T11:02:58;99906.69;;;4.45;100.00
11041;BME280;5573;49.592;8.662;2022-12-07T11:05:35;99898.97;;;4.47;100.00
11041;BME280;5573;49.592;8.662;2022-12-07T11:08:15;99909.94;;;4.38;100.00
11041;BME280;5573;49.592;8.662;2022-12-07T11:10:51;99891.56;;;4.35;100.00
11041;BME280;5573;49.592;8.662;2022-12-07T11:13:26;99886.91;;;4.36;100.00
11041;BME280;5573;49.592;8.662;2022-12-07T11:16:07;99890.34;;;4.45;100.00
11041;BME280;5573;49.592;8.662;2022-12-07T11:18:48;99890.91;;;4.51;100.00
11041;BME280;5573;49.592;8.662;2022-12-07T11:21:24;99884.66;;;4.50;100.00
11041;BME280;5573;49.592;8.662;2022-12-07T11:24:01;99877.19;;;4.47;100.00
11041;BME280;5573;49.592;8.662;2022-12-07T11:26:41;99877.28;;;4.51;100.00
11041;BME280;5573;49.592;8.662;2022-12-07T11:29:22;99874.56;;;4.63;100.00
11041;BME280;5573;49.592;8.662;2022-12-07T11:32:04;99870.47;;;4.69;100.00
11041;BME280;5573;49.592;8.662;2022-12-07T11:34:39;99867.19;;;4.76;100.00
11041;BME280;5573;49.592;8.662;2022-12-07T11:37:17;99865.69;;;4.91;100.00
11041;BME280;5573;49.592;8.662;2022-12-07T11:39:50;99866.03;;;5.01;100.00
11041;BME280;5573;49.592;8.662;2022-12-07T11:42:22;99866.91;;;5.30;100.00
11041;BME280;5573;49.592;8.662;2022-12-07T11:44:53;99854.28;;;5.66;100.00
11041;BME280;5573;49.592;8.662;2022-12-07T11:47:28;99858.16;;;5.93;100.00
11041;BME280;5573;49.592;8.662;2022-12-07T11:50:05;99854.25;;;5.94;100.00
11041;BME280;5573;49.592;8.662;2022-12-07T11:52:44;99856.78;;;5.99;100.00
11041;BME280;5573;49.592;8.662;2022-12-07T11:55:21;99850.84;;;5.69;100.00
11041;BME280;5573;49.592;8.662;2022-12-07T11:57:56;99847.03;;;5.58;100.00
11041;BME280;5573;49.592;8.662;2022-12-07T12:00:25;99851.59;;;5.54;100.00
11041;BME280;5573;49.592;8.662;2022-12-07T12:02:57;99840.09;;;5.60;100.00
11041;BME280;5573;49.592;8.662;2022-12-07T12:05:27;99838.84;;;5.58;100.00
11041;BME280;5573;49.592;8.662;2022-12-07T12:08:04;99840.91;;;5.61;100.00
11041;BME280;5573;49.592;8.662;2022-12-07T12:10:58;99839.56;;;5.55;100.00
11041;BME280;5573;49.592;8.662;2022-12-07T12:13:43;99837.34;;;5.60;100.00
11041;BME280;5573;49.592;8.662;2022-12-07T12:16:49;99841.44;;;5.66;100.00
11041;BME280;5573;49.592;8.662;2022-12-07T12:19:29;99840.75;;;5.69;100.00
11041;BME280;5573;49.592;8.662;2022-12-07T12:22:06;99834.03;;;5.67;100.00
11041;BME280;5573;49.592;8.662;2022-12-07T12:24:40;99826.81;;;5.59;100.00
11041;BME280;5573;49.592;8.662;2022-12-07T12:27:15;99839.19;;;5.56;100.00
11041;BME280;5573;49.592;8.662;2022-12-07T12:29:52;99828.84;;;5.62;100.00
11041;BME280;5573;49.592;8.662;2022-12-07T12:32:22;99827.25;;;5.61;100.00
11041;BME280;5573;49.592;8.662;2022-12-07T12:35:00;99825.41;;;5.65;100.00
11041;BME280;5573;49.592;8.662;2022-12-07T12:37:43;99821.94;;;5.52;100.00
11041;BME280;5573;49.592;8.662;2022-12-07T12:40:41;99819.50;;;5.35;100.00
11041;BME280;5573;49.592;8.662;2022-12-07T12:43:48;99814.00;;;5.47;100.00
11041;BME280;5573;49.592;8.662;2022-12-07T12:46:46;99811.59;;;5.45;100.00
11041;BME280;5573;49.592;8.662;2022-12-07T12:49:40;99810.66;;;5.54;100.00
11041;BME280;5573;49.592;8.662;2022-12-07T12:58:33;99804.81;;;5.39;100.00
11041;BME280;5573;49.592;8.662;2022-12-07T13:04:34;99803.09;;;5.47;100.00
11041;BME280;5573;49.592;8.662;2022-12-07T13:07:11;99796.13;;;5.49;100.00
11041;BME280;5573;49.592;8.662;2022-12-07T13:09:43;99787.59;;;5.51;100.00
11041;BME280;5573;49.592;8.662;2022-12-07T13:12:14;99801.81;;;5.57;100.00
11041;BME280;5573;49.592;8.662;2022-12-07T13:14:58;99789.78;;;5.45;100.00
11041;BME280;5573;49.592;8.662;2022-12-07T13:17:59;99786.72;;;5.47;100.00
11041;BME280;5573;49.592;8.662;2022-12-07T13:20:44;99785.81;;;5.43;100.00
11041;BME280;5573;49.592;8.662;2022-12-07T13:23:14;99792.81;;;5.56;100.00
11041;BME280;5573;49.592;8.662;2022-12-07T13:25:49;99780.94;;;5.64;100.00
11041;BME280;5573;49.592;8.662;2022-12-07T13:28:19;99782.63;;;5.69;100.00
11041;BME280;5573;49.592;8.662;2022-12-07T13:33:53;99771.63;;;5.65;100.00
11041;BME280;5573;49.592;8.662;2022-12-07T13:36:23;99774.88;;;5.71;100.00
11041;BME280;5573;49.592;8.662;2022-12-07T13:38:54;99670.47;;;5.14;100.00
11041;BME280;5573;49.592;8.662;2022-12-07T13:41:23;99759.84;;;5.77;100.00
11041;BME280;5573;49.592;8.662;2022-12-07T13:43:59;99727.47;;;5.47;100.00
11041;BME280;5573;49.592;8.662;2022-12-07T13:46:35;99753.16;;;5.75;100.00
11041;BME280;5573;49.592;8.662;2022-12-07T13:49:18;99760.03;;;5.84;100.00
11041;BME280;5573;49.592;8.662;2022-12-07T13:51:47;99763.28;;;5.90;100.00
11041;BME280;5573;49.592;8.662;2022-12-07T13:54:15;99760.66;;;5.94;100.00
11041;BME280;5573;49.592;8.662;2022-12-07T13:56:43;99757.81;;;5.74;100.00
11041;BME280;5573;49.592;8.662;2022-12-07T13:59:17;99758.38;;;5.80;100.00
11041;BME280;5573;49.592;8.662;2022-12-07T14:01:47;99755.78;;;5.71;100.00
11041;BME280;5573;49.592;8.662;2022-12-07T14:04:30;99756.22;;;5.73;100.00
11041;BME280;5573;49.592;8.662;2022-12-07T14:07:00;99762.22;;;5.79;100.00
11041;BME280;5573;49.592;8.662;2022-12-07T14:09:29;99766.06;;;5.62;100.00
11041;BME280;5573;49.592;8.662;2022-12-07T14:11:57;99772.59;;;5.73;100.00
11041;BME280;5573;49.592;8.662;2022-12-07T14:14:28;99756.81;;;5.66;100.00
11041;BME280;5573;49.592;8.662;2022-12-07T14:17:12;99765.47;;;5.68;100.00
11041;BME280;5573;49.592;8.662;2022-12-07T14:19:49;99760.44;;;5.70;100.00
11041;BME280;5573;49.592;8.662;2022-12-07T14:22:25;99760.09;;;5.72;100.00
11041;BME280;5573;49.592;8.662;2022-12-07T14:25:16;99763.97;;;5.71;100.00
11041;BME280;5573;49.592;8.662;2022-12-07T14:27:50;99763.78;;;5.64;100.00
11041;BME280;5573;49.592;8.662;2022-12-07T14:30:20;99767.41;;;5.68;100.00
11041;BME280;5573;49.592;8.662;2022-12-07T14:32:51;99767.56;;;5.75;100.00
11041;BME280;5573;49.592;8.662;2022-12-07T14:35:21;99773.03;;;5.75;100.00
11041;BME280;5573;49.592;8.662;2022-12-07T14:37:49;99764.41;;;5.73;100.00
11041;BME280;5573;49.592;8.662;2022-12-07T14:40:19;99765.56;;;5.72;100.00
11041;BME280;5573;49.592;8.662;2022-12-07T14:42:50;99765.81;;;5.67;100.00
11041;BME280;5573;49.592;8.662;2022-12-07T14:45:21;99755.41;;;5.57;100.00
11041;BME280;5573;49.592;8.662;2022-12-07T14:47:49;99750.19;;;5.52;100.00